Time;durP1;ratioP1;P1;durP2;ratioP2;P2;SDS_P1;SDS_P2;PMS_P1;PMS_P2;Temp;Humidity;BMP_temperature;BMP_pressure;BME280_temperature;BME280_humidity;BME280_pressure;Samples;Min_cycle;Max_cycle;Signal;HPM_P1;HPM_P2
2023/03/12 00:00:14;;;;;;;;;;;;;;;-2.23;nan;100257.88;5020503;28;19980;-86
2023/03/12 00:02:39;;;;;;;;;;;;;;;-2.25;nan;100258.88;5020034;28;19925;-88
2023/03/12 00:05:05;;;;;;;;;;;;;;;-2.28;nan;100246.09;5018480;28;20175;-87
2023/03/12 00:07:35;;;;;;;;;;;;;;;-2.31;nan;100249.69;5021985;28;19917;-89
2023/03/12 00:10:02;;;;;;;;;;;;;;;-2.33;nan;100248.09;5016874;28;19925;-87
2023/03/12 00:12:28;;;;;;;;;;;;;;;-2.36;nan;100249.91;5016952;28;19926;-88
2023/03/12 00:15:00;;;;;;;;;;;;;;;-2.35;nan;100246.38;5019671;28;19918;-87
2023/03/12 00:17:27;;;;;;;;;;;;;;;-2.33;nan;100243.72;5021287;28;19917;-87
2023/03/12 00:19:52;;;;;;;;;;;;;;;-2.30;nan;100242.75;5026545;28;19921;-89
2023/03/12 00:22:21;;;;;;;;;;;;;;;-2.26;nan;100244.25;5031594;28;19927;-89
2023/03/12 00:24:49;;;;;;;;;;;;;;;-2.20;nan;100242.19;5022218;28;19975;-87
2023/03/12 00:27:14;;;;;;;;;;;;;;;-2.17;nan;100254.13;5018469;28;19933;-88
2023/03/12 00:29:39;;;;;;;;;;;;;;;-2.17;nan;100256.72;5017897;28;19956;-87
2023/03/12 00:32:05;;;;;;;;;;;;;;;-2.21;nan;100257.81;5016999;28;19980;-89
2023/03/12 00:34:30;;;;;;;;;;;;;;;-2.23;nan;100251.88;5010285;28;20399;-88
2023/03/12 00:36:55;;;;;;;;;;;;;;;-2.24;nan;100247.59;5020383;28;19922;-86
2023/03/12 00:39:20;;;;;;;;;;;;;;;-2.24;nan;100250.19;5021491;28;19921;-88
2023/03/12 00:41:45;;;;;;;;;;;;;;;-2.26;nan;100255.47;5020398;28;20319;-87
2023/03/12 00:44:11;;;;;;;;;;;;;;;-2.27;nan;100252.94;5023449;28;19938;-89
2023/03/12 00:46:36;;;;;;;;;;;;;;;-2.31;nan;100257.44;5014990;28;19925;-88
2023/03/12 00:49:01;;;;;;;;;;;;;;;-2.31;nan;100260.03;5023311;28;19925;-87
2023/03/12 00:51:26;;;;;;;;;;;;;;;-2.30;nan;100251.34;5009740;28;19928;-88
2023/03/12 00:53:52;;;;;;;;;;;;;;;-2.31;nan;100254.00;5007193;28;19960;-88
2023/03/12 00:56:20;;;;;;;;;;;;;;;-2.31;nan;100246.22;5015404;28;19944;-89
2023/03/12 00:58:45;;;;;;;;;;;;;;;-2.29;nan;100247.00;5016994;28;19928;-88
2023/03/12 01:01:11;;;;;;;;;;;;;;;-2.28;nan;100246.91;5015370;28;19921;-88
2023/03/12 01:03:40;;;;;;;;;;;;;;;-2.26;nan;100252.03;5013601;28;19925;-88
2023/03/12 01:06:05;;;;;;;;;;;;;;;-2.27;nan;100247.75;5019498;28;19922;-90
2023/03/12 01:08:31;;;;;;;;;;;;;;;-2.25;nan;100259.72;5026778;28;20321;-88
2023/03/12 01:10:59;;;;;;;;;;;;;;;-2.18;nan;100249.88;4999169;28;20380;-87
2023/03/12 01:13:25;;;;;;;;;;;;;;;-2.12;nan;100252.19;5014545;28;19926;-88
2023/03/12 01:15:50;;;;;;;;;;;;;;;-2.08;nan;100243.31;5018479;28;19929;-88
2023/03/12 01:18:15;;;;;;;;;;;;;;;-2.01;nan;100249.03;5018088;28;19940;-87
2023/03/12 01:20:41;;;;;;;;;;;;;;;-1.96;nan;100247.88;5010100;28;19945;-86
2023/03/12 01:23:07;;;;;;;;;;;;;;;-1.93;nan;100245.13;5025154;28;19943;-87
2023/03/12 01:25:33;;;;;;;;;;;;;;;-1.89;nan;100247.56;5020642;28;20575;-87
2023/03/12 01:27:59;;;;;;;;;;;;;;;-1.90;nan;100244.13;5028906;28;20378;-87
2023/03/12 01:30:28;;;;;;;;;;;;;;;-1.89;nan;100250.16;5026271;28;19928;-87
2023/03/12 01:32:54;;;;;;;;;;;;;;;-1.88;nan;100241.44;5020415;28;20309;-87
2023/03/12 01:35:19;;;;;;;;;;;;;;;-1.87;nan;100237.97;5008098;28;19944;-87
2023/03/12 01:37:44;;;;;;;;;;;;;;;-1.87;nan;100246.56;5015764;28;19944;-87
2023/03/12 01:40:16;;;;;;;;;;;;;;;-1.88;nan;100244.03;5018150;28;19971;-87
2023/03/12 01:42:42;;;;;;;;;;;;;;;-1.87;nan;100250.91;5008426;28;20012;-87
2023/03/12 01:45:27;;;;;;;;;;;;;;;-1.85;nan;100259.44;5007814;28;20356;-86
2023/03/12 01:47:52;;;;;;;;;;;;;;;-1.81;nan;100253.16;5010292;28;20008;-86
2023/03/12 01:50:18;;;;;;;;;;;;;;;-1.77;nan;100254.69;5006931;28;20335;-87
2023/03/12 01:52:43;;;;;;;;;;;;;;;-1.73;nan;100254.47;5015082;28;19933;-87
2023/03/12 01:55:15;;;;;;;;;;;;;;;-1.70;nan;100243.09;5008516;28;19917;-87
2023/03/12 01:57:47;;;;;;;;;;;;;;;-1.67;nan;100232.53;5019206;28;19922;-87
2023/03/12 02:00:18;;;;;;;;;;;;;;;-1.65;nan;100233.31;5023484;28;19925;-87
2023/03/12 02:02:43;;;;;;;;;;;;;;;-1.63;nan;100230.66;5011803;28;20411;-88
2023/03/12 02:05:12;;;;;;;;;;;;;;;-1.64;nan;100221.22;5015289;28;19949;-87
2023/03/12 02:07:37;;;;;;;;;;;;;;;-1.62;nan;100227.97;5024958;28;19925;-87
2023/03/12 02:10:03;;;;;;;;;;;;;;;-1.59;nan;100216.59;5031195;28;19925;-89
2023/03/12 02:12:28;;;;;;;;;;;;;;;-1.59;nan;100225.22;5027023;28;19933;-88
2023/03/12 02:14:54;;;;;;;;;;;;;;;-1.58;nan;100226.03;5025341;28;19944;-87
2023/03/12 02:17:19;;;;;;;;;;;;;;;-1.56;nan;100222.44;5020096;28;19924;-86
2023/03/12 02:19:58;;;;;;;;;;;;;;;-1.54;nan;100222.38;5002389;28;19918;-87
2023/03/12 02:22:24;;;;;;;;;;;;;;;-1.52;nan;100221.38;5031582;28;19917;-87
2023/03/12 02:25:02;;;;;;;;;;;;;;;-1.50;nan;100219.53;5022062;28;20091;-86
2023/03/12 02:27:28;;;;;;;;;;;;;;;-1.45;nan;100210.66;5030568;28;19971;-86
2023/03/12 02:29:53;;;;;;;;;;;;;;;-1.40;nan;100208.69;5022845;28;19922;-87
2023/03/12 02:32:31;;;;;;;;;;;;;;;-1.35;nan;100207.50;5023128;28;19921;-86
2023/03/12 02:34:58;;;;;;;;;;;;;;;-1.27;nan;100209.66;5018190;28;19980;-86
2023/03/12 02:37:23;;;;;;;;;;;;;;;-1.19;nan;100210.09;5024669;28;19917;-88
2023/03/12 02:39:53;;;;;;;;;;;;;;;-1.13;nan;100203.72;5017189;28;19945;-87
2023/03/12 02:42:19;;;;;;;;;;;;;;;-1.04;nan;100198.03;5024089;28;19926;-87
2023/03/12 02:44:45;;;;;;;;;;;;;;;-0.96;nan;100202.78;5022147;28;19933;-87
2023/03/12 02:47:10;;;;;;;;;;;;;;;-0.90;nan;100197.25;5015155;28;20152;-87
2023/03/12 02:49:35;;;;;;;;;;;;;;;-0.84;nan;100196.06;5011228;28;20090;-86
2023/03/12 02:52:01;;;;;;;;;;;;;;;-0.76;nan;100186.06;5018868;28;19925;-86
2023/03/12 02:54:27;;;;;;;;;;;;;;;-0.71;nan;100189.25;5019428;28;19925;-87
2023/03/12 02:56:52;;;;;;;;;;;;;;;-0.67;nan;100189.00;5019560;28;19925;-87
2023/03/12 02:59:19;;;;;;;;;;;;;;;-0.62;nan;100188.72;5014732;28;20008;-87
2023/03/12 03:01:45;;;;;;;;;;;;;;;-0.61;nan;100186.97;5024004;28;20211;-89
2023/03/12 03:04:10;;;;;;;;;;;;;;;-0.61;nan;100189.56;5020329;28;19921;-87
2023/03/12 03:06:37;;;;;;;;;;;;;;;-0.60;nan;100189.44;5021373;28;20009;-86
2023/03/12 03:09:02;;;;;;;;;;;;;;;-0.55;nan;100194.38;5021558;28;19957;-87
2023/03/12 03:11:28;;;;;;;;;;;;;;;-0.51;nan;100183.72;5025506;28;19934;-86
2023/03/12 03:14:03;;;;;;;;;;;;;;;-0.45;nan;100183.38;5017992;28;19921;-88
2023/03/12 03:16:34;;;;;;;;;;;;;;;-0.38;nan;100185.59;5026191;28;19929;-86
2023/03/12 03:18:59;;;;;;;;;;;;;;;-0.31;nan;100174.78;5029086;28;19928;-87
2023/03/12 03:21:24;;;;;;;;;;;;;;;-0.25;nan;100177.00;5014824;28;19973;-88
2023/03/12 03:23:50;;;;;;;;;;;;;;;-0.18;nan;100181.84;5013102;28;19922;-88
2023/03/12 03:26:17;;;;;;;;;;;;;;;-0.14;nan;100181.56;5013765;28;20311;-87
2023/03/12 03:28:42;;;;;;;;;;;;;;;-0.06;nan;100181.09;5022110;28;19931;-87
2023/03/12 03:31:07;;;;;;;;;;;;;;;-0.02;nan;100178.22;5032659;28;19925;-88
2023/03/12 03:33:34;;;;;;;;;;;;;;;0.03;nan;100177.94;5030570;28;19917;-89
2023/03/12 03:36:00;;;;;;;;;;;;;;;0.09;nan;100180.16;5033492;28;19932;-88
2023/03/12 03:38:26;;;;;;;;;;;;;;;0.13;nan;100180.81;5018561;28;19929;-88
2023/03/12 03:40:51;;;;;;;;;;;;;;;0.16;nan;100181.47;5007281;28;20361;-89
2023/03/12 03:43:17;;;;;;;;;;;;;;;0.20;nan;100175.16;5011893;28;20021;-88
2023/03/12 03:45:43;;;;;;;;;;;;;;;0.22;nan;100169.88;5006452;28;20383;-87
2023/03/12 03:48:09;;;;;;;;;;;;;;;0.23;nan;100161.13;5014375;28;19968;-88
2023/03/12 03:50:35;;;;;;;;;;;;;;;0.24;nan;100175.81;5015980;28;19952;-89
2023/03/12 03:53:01;;;;;;;;;;;;;;;0.25;nan;100171.44;5012842;28;19932;-88
2023/03/12 03:55:26;;;;;;;;;;;;;;;0.25;nan;100174.88;5013989;28;20012;-88
2023/03/12 03:57:51;;;;;;;;;;;;;;;0.24;nan;100183.63;5011955;28;19991;-88
2023/03/12 04:00:17;;;;;;;;;;;;;;;0.24;nan;100193.16;5011846;28;19992;-88
2023/03/12 04:02:42;;;;;;;;;;;;;;;0.23;nan;100194.09;5014580;28;19988;-88
2023/03/12 04:05:08;;;;;;;;;;;;;;;0.23;nan;100204.50;5013977;28;20085;-88
2023/03/12 04:07:34;;;;;;;;;;;;;;;0.22;nan;100208.03;5017929;28;19992;-88
2023/03/12 04:09:59;;;;;;;;;;;;;;;0.25;nan;100193.06;5027413;28;20293;-88
2023/03/12 04:12:24;;;;;;;;;;;;;;;0.22;nan;100198.47;5025832;28;19929;-88
2023/03/12 04:14:50;;;;;;;;;;;;;;;0.20;nan;100195.94;5016758;28;19945;-87
2023/03/12 04:17:15;;;;;;;;;;;;;;;0.22;nan;100192.44;5025184;28;20017;-87
2023/03/12 04:19:41;;;;;;;;;;;;;;;0.14;nan;100191.16;5036176;28;19917;-86
2023/03/12 04:22:06;;;;;;;;;;;;;;;0.15;nan;100181.56;5050024;28;20006;-89
2023/03/12 04:24:31;;;;;;;;;;;;;;;-0.01;nan;100173.84;5023277;28;19949;-87
2023/03/12 04:26:57;;;;;;;;;;;;;;;-0.03;nan;100180.91;5014948;28;19918;-89
2023/03/12 04:29:23;;;;;;;;;;;;;;;-0.05;nan;100174.97;5013884;28;19971;-88
2023/03/12 04:31:48;;;;;;;;;;;;;;;-0.03;nan;100173.09;5027297;28;20341;-87
2023/03/12 04:34:13;;;;;;;;;;;;;;;0.00;nan;100175.53;5010808;28;19921;-88
2023/03/12 04:36:38;;;;;;;;;;;;;;;0.07;nan;100161.25;5011381;28;20288;-88
2023/03/12 04:39:07;;;;;;;;;;;;;;;0.07;nan;100166.44;5026681;28;20014;-88
2023/03/12 04:41:33;;;;;;;;;;;;;;;0.01;nan;100168.56;5009532;28;19921;-88
2023/03/12 04:43:58;;;;;;;;;;;;;;;0.05;nan;100164.84;5006937;28;19949;-87
2023/03/12 04:46:23;;;;;;;;;;;;;;;0.05;nan;100178.69;5018026;28;20085;-87
2023/03/12 04:48:48;;;;;;;;;;;;;;;0.09;nan;100171.53;5023486;28;19929;-87
2023/03/12 04:51:14;;;;;;;;;;;;;;;0.15;nan;100165.97;5022847;28;19926;-87
2023/03/12 04:53:39;;;;;;;;;;;;;;;0.20;nan;100164.75;5025475;28;20294;-88
2023/03/12 04:56:06;;;;;;;;;;;;;;;0.28;nan;100160.84;5022375;28;19921;-86
2023/03/12 04:58:31;;;;;;;;;;;;;;;0.31;nan;100158.03;5024661;28;19952;-86
2023/03/12 05:00:56;;;;;;;;;;;;;;;0.34;nan;100170.88;5032541;28;19928;-88
2023/03/12 05:03:22;;;;;;;;;;;;;;;0.37;nan;100174.09;5021759;28;19928;-86
2023/03/12 05:05:47;;;;;;;;;;;;;;;0.35;nan;100172.53;5028195;28;20004;-87
2023/03/12 05:08:12;;;;;;;;;;;;;;;0.35;nan;100165.56;5021100;28;19925;-87
2023/03/12 05:10:37;;;;;;;;;;;;;;;0.31;nan;100158.91;5016811;28;20404;-88
2023/03/12 05:13:03;;;;;;;;;;;;;;;0.32;nan;100159.72;5025789;28;19981;-86
2023/03/12 05:15:28;;;;;;;;;;;;;;;0.31;nan;100165.84;5031400;28;19975;-86
2023/03/12 05:17:53;;;;;;;;;;;;;;;0.31;nan;100176.25;5024234;28;19971;-88
2023/03/12 05:20:18;;;;;;;;;;;;;;;0.32;nan;100172.72;5021994;28;19922;-88
2023/03/12 05:22:44;;;;;;;;;;;;;;;0.30;nan;100172.81;5018282;28;19981;-87
2023/03/12 05:25:09;;;;;;;;;;;;;;;0.32;nan;100172.72;5019905;28;20000;-85
2023/03/12 05:27:35;;;;;;;;;;;;;;;0.32;nan;100172.72;5027693;28;19948;-90
2023/03/12 05:30:04;;;;;;;;;;;;;;;0.31;nan;100171.91;5021388;28;19925;-88
2023/03/12 05:32:29;;;;;;;;;;;;;;;0.33;nan;100174.38;5025444;28;20004;-87
2023/03/12 05:34:54;;;;;;;;;;;;;;;0.36;nan;100174.22;5018193;28;19945;-86
2023/03/12 05:37:20;;;;;;;;;;;;;;;0.38;nan;100178.41;5019353;28;19922;-87
2023/03/12 05:39:45;;;;;;;;;;;;;;;0.39;nan;100172.25;5019996;28;19929;-86
2023/03/12 05:42:13;;;;;;;;;;;;;;;0.38;nan;100169.72;5027351;28;19917;-87
2023/03/12 05:44:39;;;;;;;;;;;;;;;0.33;nan;100174.38;5021116;28;19922;-88
2023/03/12 05:47:04;;;;;;;;;;;;;;;0.29;nan;100167.72;5016919;28;19927;-90
2023/03/12 05:49:30;;;;;;;;;;;;;;;0.26;nan;100167.91;5024000;28;19925;-87
2023/03/12 05:51:55;;;;;;;;;;;;;;;0.27;nan;100164.38;5019897;28;19968;-87
2023/03/12 05:54:20;;;;;;;;;;;;;;;0.27;nan;100154.81;5016182;28;19929;-88
2023/03/12 05:56:46;;;;;;;;;;;;;;;0.30;nan;100153.78;5021639;28;20303;-86
2023/03/12 05:59:11;;;;;;;;;;;;;;;0.30;nan;100154.59;5014082;28;20380;-87
2023/03/12 06:01:36;;;;;;;;;;;;;;;0.32;nan;100155.34;5023782;28;20494;-86
2023/03/12 06:04:01;;;;;;;;;;;;;;;0.31;nan;100164.09;5019386;28;19927;-87
2023/03/12 06:06:29;;;;;;;;;;;;;;;0.35;nan;100159.53;5015983;28;19933;-86
2023/03/12 06:08:55;;;;;;;;;;;;;;;0.33;nan;100156.19;5017170;28;20126;-86
2023/03/12 06:11:20;;;;;;;;;;;;;;;0.32;nan;100159.72;5017891;28;20218;-86
2023/03/12 06:13:45;;;;;;;;;;;;;;;0.35;nan;100160.34;5010678;28;19987;-85
2023/03/12 06:16:14;;;;;;;;;;;;;;;0.35;nan;100156.94;5013243;28;19933;-86
2023/03/12 06:18:40;;;;;;;;;;;;;;;0.35;nan;100162.13;5013084;28;20334;-85
2023/03/12 06:21:13;;;;;;;;;;;;;;;0.38;nan;100165.38;5017173;28;19975;-85
2023/03/12 06:23:38;;;;;;;;;;;;;;;0.43;nan;100159.91;5016624;28;20008;-86
2023/03/12 06:26:04;;;;;;;;;;;;;;;0.47;nan;100158.75;5015781;28;19972;-86
2023/03/12 06:28:29;;;;;;;;;;;;;;;0.50;nan;100161.19;5008122;28;20048;-86
2023/03/12 06:30:55;;;;;;;;;;;;;;;0.55;nan;100160.88;5010365;28;19964;-86
2023/03/12 06:33:20;;;;;;;;;;;;;;;0.59;nan;100164.94;5001746;28;19933;-85
2023/03/12 06:35:46;;;;;;;;;;;;;;;0.63;nan;100154.25;5001999;28;19925;-85
2023/03/12 06:38:11;;;;;;;;;;;;;;;0.71;nan;100152.94;5005022;28;19968;-86
2023/03/12 06:40:36;;;;;;;;;;;;;;;0.78;nan;100157.66;5006580;28;19925;-87
2023/03/12 06:43:01;;;;;;;;;;;;;;;0.88;nan;100157.06;5020249;28;19925;-87
2023/03/12 06:45:27;;;;;;;;;;;;;;;0.96;nan;100160.00;4998548;28;19922;-85
2023/03/12 06:47:52;;;;;;;;;;;;;;;1.00;nan;100151.91;4997421;28;19921;-85
2023/03/12 06:50:17;;;;;;;;;;;;;;;1.06;nan;100153.28;5011816;28;20391;-86
2023/03/12 06:52:43;;;;;;;;;;;;;;;1.07;nan;100144.50;5014357;28;19972;-86
2023/03/12 06:55:08;;;;;;;;;;;;;;;1.11;nan;100145.16;4989454;28;20398;-87
2023/03/12 06:57:33;;;;;;;;;;;;;;;1.13;nan;100154.53;4988212;28;20413;-87
2023/03/12 06:59:58;;;;;;;;;;;;;;;1.19;nan;100148.06;4995167;28;20383;-86
2023/03/12 07:02:23;;;;;;;;;;;;;;;1.27;nan;100136.22;4991646;28;20004;-87
2023/03/12 07:04:49;;;;;;;;;;;;;;;1.31;nan;100139.47;4986426;28;19921;-86
2023/03/12 07:07:15;;;;;;;;;;;;;;;1.35;nan;100140.09;5002532;28;20377;-86
2023/03/12 07:09:41;;;;;;;;;;;;;;;1.37;nan;100133.84;5009256;28;19981;-86
2023/03/12 07:12:07;;;;;;;;;;;;;;;1.44;nan;100135.09;5014421;28;19921;-88
2023/03/12 07:14:32;;;;;;;;;;;;;;;1.48;nan;100141.78;5003934;28;20181;-87
2023/03/12 07:17:00;;;;;;;;;;;;;;;1.60;nan;100144.50;4994434;28;19948;-87
2023/03/12 07:19:25;;;;;;;;;;;;;;;1.69;nan;100141.25;5015744;28;19924;-87
2023/03/12 07:21:51;;;;;;;;;;;;;;;1.78;nan;100150.22;5016385;28;20004;-87
2023/03/12 07:24:16;;;;;;;;;;;;;;;1.84;nan;100147.22;5004606;28;19928;-86
2023/03/12 07:26:42;;;;;;;;;;;;;;;1.87;nan;100145.22;5016077;28;19925;-88
2023/03/12 07:29:07;;;;;;;;;;;;;;;1.92;nan;100150.94;5020565;28;19925;-87
2023/03/12 07:31:32;;;;;;;;;;;;;;;2.00;nan;100152.19;5004611;28;20326;-87
2023/03/12 07:33:58;;;;;;;;;;;;;;;2.08;nan;100150.72;5017759;28;19921;-87
2023/03/12 07:36:23;;;;;;;;;;;;;;;2.15;nan;100148.53;4991609;28;20475;-86
2023/03/12 07:38:48;;;;;;;;;;;;;;;2.15;nan;100135.50;4994017;28;19922;-87
2023/03/12 07:41:13;;;;;;;;;;;;;;;2.16;nan;100137.16;5000993;28;19922;-87
2023/03/12 07:43:39;;;;;;;;;;;;;;;2.16;nan;100144.97;5005113;28;19921;-88
2023/03/12 07:46:04;;;;;;;;;;;;;;;2.16;nan;100149.34;5025256;28;20048;-87
2023/03/12 07:48:29;;;;;;;;;;;;;;;2.19;nan;100141.31;5014319;28;19921;-86
2023/03/12 07:50:54;;;;;;;;;;;;;;;2.25;nan;100143.50;5001174;28;20405;-88
2023/03/12 07:53:20;;;;;;;;;;;;;;;2.21;nan;100136.81;5005199;28;20249;-87
2023/03/12 07:55:46;;;;;;;;;;;;;;;2.19;nan;100142.13;5006922;28;20395;-87
2023/03/12 07:58:12;;;;;;;;;;;;;;;2.21;nan;100140.25;4994588;28;19922;-86
2023/03/12 08:00:37;;;;;;;;;;;;;;;2.22;nan;100151.56;5003734;28;20246;-87
2023/03/12 08:03:02;;;;;;;;;;;;;;;2.25;nan;100151.31;5022975;28;20311;-87
2023/03/12 08:05:28;;;;;;;;;;;;;;;2.30;nan;100152.66;4998274;28;20013;-87
2023/03/12 08:07:53;;;;;;;;;;;;;;;2.31;nan;100156.09;4998381;28;19917;-87
2023/03/12 08:10:19;;;;;;;;;;;;;;;2.32;nan;100163.00;4997826;28;19984;-87
2023/03/12 08:12:44;;;;;;;;;;;;;;;2.33;nan;100165.47;5000235;28;19932;-87
2023/03/12 08:15:11;;;;;;;;;;;;;;;2.36;nan;100155.78;5013035;28;20008;-87
2023/03/12 08:17:36;;;;;;;;;;;;;;;2.34;nan;100154.13;4989920;28;20376;-87
2023/03/12 08:20:03;;;;;;;;;;;;;;;2.28;nan;100151.94;4975329;28;19928;-88
2023/03/12 08:22:28;;;;;;;;;;;;;;;2.27;nan;100157.28;5001758;28;19929;-87
2023/03/12 08:24:53;;;;;;;;;;;;;;;2.28;nan;100162.38;4997246;28;20349;-87
2023/03/12 08:27:18;;;;;;;;;;;;;;;2.30;nan;100154.44;5011594;28;19948;-85
2023/03/12 08:29:44;;;;;;;;;;;;;;;2.30;nan;100151.84;4991650;28;19941;-87
2023/03/12 08:32:09;;;;;;;;;;;;;;;2.38;nan;100161.72;5016141;28;20299;-85
2023/03/12 08:34:35;;;;;;;;;;;;;;;2.41;nan;100161.50;5010541;28;20410;-86
2023/03/12 08:37:00;;;;;;;;;;;;;;;2.44;nan;100158.69;5020475;28;20298;-86
2023/03/12 08:39:25;;;;;;;;;;;;;;;2.49;nan;100152.19;5009062;28;20272;-86
2023/03/12 08:41:54;;;;;;;;;;;;;;;2.53;nan;100153.66;5016974;28;19928;-86
2023/03/12 08:44:19;;;;;;;;;;;;;;;2.58;nan;100147.28;5008227;28;19928;-86
2023/03/12 08:46:45;;;;;;;;;;;;;;;2.59;nan;100151.53;5018024;28;20011;-86
2023/03/12 08:49:10;;;;;;;;;;;;;;;2.58;nan;100149.88;5014689;28;19976;-87
2023/03/12 08:51:35;;;;;;;;;;;;;;;2.61;nan;100147.06;5018636;28;20354;-86
2023/03/12 08:54:01;;;;;;;;;;;;;;;2.61;nan;100142.66;5021480;28;20023;-86
2023/03/12 08:56:26;;;;;;;;;;;;;;;2.65;nan;100143.28;5011346;28;19921;-86
2023/03/12 08:58:51;;;;;;;;;;;;;;;2.73;nan;100144.38;5015553;28;20307;-86
2023/03/12 09:01:17;;;;;;;;;;;;;;;2.84;nan;100129.72;5008524;28;20363;-85
2023/03/12 09:03:42;;;;;;;;;;;;;;;3.00;nan;100140.69;5013929;28;20458;-85
2023/03/12 09:06:12;;;;;;;;;;;;;;;3.18;nan;100133.28;5013147;28;19921;-86
2023/03/12 09:08:37;;;;;;;;;;;;;;;3.29;nan;100129.88;5023987;28;19921;-86
2023/03/12 09:11:02;;;;;;;;;;;;;;;3.34;nan;100131.22;5019884;28;19952;-85
2023/03/12 09:13:28;;;;;;;;;;;;;;;3.44;nan;100122.69;5019458;28;19925;-86
2023/03/12 09:15:57;;;;;;;;;;;;;;;3.51;nan;100127.31;5013005;28;19921;-86
2023/03/12 09:18:22;;;;;;;;;;;;;;;3.64;nan;100139.44;5011760;28;19955;-85
2023/03/12 09:20:47;;;;;;;;;;;;;;;3.72;nan;100137.94;5018012;28;20012;-86
2023/03/12 09:23:13;;;;;;;;;;;;;;;3.76;nan;100143.75;5023276;28;19921;-86
2023/03/12 09:25:38;;;;;;;;;;;;;;;3.77;nan;100143.63;5022570;28;19930;-86
2023/03/12 09:28:03;;;;;;;;;;;;;;;3.81;nan;100141.59;5028028;28;19932;-85
2023/03/12 09:30:30;;;;;;;;;;;;;;;3.96;nan;100148.28;5029805;28;19921;-86
2023/03/12 09:32:56;;;;;;;;;;;;;;;4.12;nan;100147.06;5017868;28;19988;-85
2023/03/12 09:35:21;;;;;;;;;;;;;;;4.22;nan;100146.25;5018093;28;20421;-85
2023/03/12 09:37:47;;;;;;;;;;;;;;;4.28;nan;100139.69;5011744;28;20292;-86
2023/03/12 09:40:15;;;;;;;;;;;;;;;4.34;nan;100148.84;5026464;28;19937;-86
2023/03/12 09:43:01;;;;;;;;;;;;;;;4.38;nan;100142.41;5025295;28;20370;-87
2023/03/12 09:45:37;;;;;;;;;;;;;;;4.46;nan;100156.56;5026769;28;19961;-87
2023/03/12 09:48:03;;;;;;;;;;;;;;;4.56;nan;100153.22;5019217;28;19926;-87
2023/03/12 09:50:42;;;;;;;;;;;;;;;4.62;nan;100157.97;5018530;28;19920;-87
2023/03/12 09:53:13;;;;;;;;;;;;;;;4.72;nan;100155.44;5015089;28;19929;-86
2023/03/12 09:55:40;;;;;;;;;;;;;;;4.70;nan;100167.84;5014196;28;19928;-87
2023/03/12 09:58:11;;;;;;;;;;;;;;;4.71;nan;100157.22;5018850;28;20291;-87
2023/03/12 10:00:37;;;;;;;;;;;;;;;4.70;nan;100167.84;5008977;28;19921;-87
2023/03/12 10:03:05;;;;;;;;;;;;;;;4.77;nan;100156.75;5003392;28;19921;-86
2023/03/12 10:05:45;;;;;;;;;;;;;;;4.87;nan;100173.38;5007883;28;20004;-87
2023/03/12 10:08:16;;;;;;;;;;;;;;;4.87;nan;100181.25;5004559;28;19976;-87
2023/03/12 10:10:57;;;;;;;;;;;;;;;4.89;nan;100187.19;5015757;28;20394;-87
2023/03/12 10:13:45;;;;;;;;;;;;;;;5.03;nan;100187.84;5005812;28;20273;-87
2023/03/12 10:16:18;;;;;;;;;;;;;;;4.98;nan;100185.63;5010874;28;19921;-86
2023/03/12 10:18:46;;;;;;;;;;;;;;;4.98;nan;100184.78;5014889;28;19992;-87
2023/03/12 10:21:32;;;;;;;;;;;;;;;4.97;nan;100185.75;5008959;28;19971;-87
2023/03/12 10:24:16;;;;;;;;;;;;;;;4.96;nan;100195.41;5017654;28;19928;-90
2023/03/12 10:26:44;;;;;;;;;;;;;;;4.91;nan;100189.69;5013406;28;19968;-87
2023/03/12 10:29:16;;;;;;;;;;;;;;;4.95;nan;100179.78;5014301;28;20392;-86
2023/03/12 10:31:47;;;;;;;;;;;;;;;5.07;nan;100194.50;5012583;28;20001;-86
2023/03/12 10:34:28;;;;;;;;;;;;;;;5.12;nan;100189.72;5014978;28;20338;-86
2023/03/12 10:36:56;;;;;;;;;;;;;;;5.20;nan;100187.31;5011743;28;20000;-83
2023/03/12 10:39:21;;;;;;;;;;;;;;;5.41;nan;100189.13;5018448;28;20008;-86
2023/03/12 10:41:47;;;;;;;;;;;;;;;5.63;nan;100188.19;5014131;28;19961;-86
2023/03/12 10:44:18;;;;;;;;;;;;;;;5.78;nan;100189.50;5021447;28;19926;-86
2023/03/12 10:46:58;;;;;;;;;;;;;;;5.88;nan;100184.31;5013270;28;19922;-85
2023/03/12 10:49:24;;;;;;;;;;;;;;;5.87;nan;100174.81;5015988;28;19932;-87
2023/03/12 10:52:02;;;;;;;;;;;;;;;5.91;nan;100170.94;5019447;28;19925;-85
2023/03/12 10:54:30;;;;;;;;;;;;;;;5.77;nan;100166.88;5028174;28;19948;-86
2023/03/12 10:56:55;;;;;;;;;;;;;;;5.79;nan;100174.59;5034642;28;19922;-85
2023/03/12 10:59:22;;;;;;;;;;;;;;;5.82;nan;100163.88;5020790;28;20107;-86
2023/03/12 11:01:49;;;;;;;;;;;;;;;5.90;nan;100174.53;5023944;28;19928;-87
2023/03/12 11:04:20;;;;;;;;;;;;;;;5.98;nan;100174.72;5012658;28;19926;-87
2023/03/12 11:07:21;;;;;;;;;;;;;;;6.10;nan;100181.59;5012492;28;19933;-86
2023/03/12 11:10:02;;;;;;;;;;;;;;;6.23;nan;100189.22;4983966;28;19922;-85
2023/03/12 11:12:29;;;;;;;;;;;;;;;6.38;nan;100176.56;5010099;28;19976;-85
2023/03/12 11:14:55;;;;;;;;;;;;;;;6.42;nan;100185.84;5015498;28;20127;-87
2023/03/12 11:17:21;;;;;;;;;;;;;;;6.30;nan;100187.72;5015299;28;20148;-86
2023/03/12 11:19:47;;;;;;;;;;;;;;;6.27;nan;100182.75;5020907;28;19921;-87
2023/03/12 11:22:14;;;;;;;;;;;;;;;6.28;nan;100189.66;5014911;28;19925;-85
2023/03/12 11:24:59;;;;;;;;;;;;;;;6.24;nan;100195.28;5020022;28;20528;-86
2023/03/12 11:27:30;;;;;;;;;;;;;;;6.22;nan;100202.47;5015963;28;19921;-88
2023/03/12 11:29:56;;;;;;;;;;;;;;;6.24;nan;100196.13;5010554;28;19929;-88
2023/03/12 11:32:24;;;;;;;;;;;;;;;6.27;nan;100195.03;5030534;28;19945;-86
2023/03/12 11:34:49;;;;;;;;;;;;;;;6.23;nan;100189.22;5016555;28;19975;-85
2023/03/12 11:37:24;;;;;;;;;;;;;;;6.44;nan;100181.28;5014507;28;20735;-85
2023/03/12 11:39:49;;;;;;;;;;;;;;;6.70;nan;100176.38;5016967;28;19944;-85
2023/03/12 11:42:14;;;;;;;;;;;;;;;6.84;nan;100175.16;5017542;28;20359;-85
2023/03/12 11:44:48;;;;;;;;;;;;;;;7.09;nan;100163.25;5011360;28;19922;-85
2023/03/12 11:47:31;;;;;;;;;;;;;;;7.98;nan;100186.66;5003133;28;20449;-86
2023/03/12 11:50:15;;;;;;;;;;;;;;;8.67;nan;100180.16;5004285;28;19925;-86
2023/03/12 11:52:51;;;;;;;;;;;;;;;8.81;nan;100175.34;5009450;28;19957;-86
2023/03/12 11:55:26;;;;;;;;;;;;;;;9.07;nan;100183.38;5011382;28;20340;-85
2023/03/12 11:58:06;;;;;;;;;;;;;;;9.44;nan;100177.94;5011924;28;20008;-86
2023/03/12 12:00:38;;;;;;;;;;;;;;;9.75;nan;100178.31;5013689;28;20024;-86
2023/03/12 12:03:29;;;;;;;;;;;;;;;9.73;nan;100182.09;5016255;28;19998;-85
2023/03/12 12:05:54;;;;;;;;;;;;;;;9.72;nan;100178.59;5008847;28;19917;-86
2023/03/12 12:08:19;;;;;;;;;;;;;;;9.69;nan;100170.19;5014468;28;19928;-85
2023/03/12 12:10:44;;;;;;;;;;;;;;;9.62;nan;100166.50;5007438;28;19968;-86
2023/03/12 12:13:17;;;;;;;;;;;;;;;9.40;nan;100152.81;5012620;28;19926;-86
2023/03/12 12:15:42;;;;;;;;;;;;;;;9.52;nan;100148.13;5011690;28;19921;-84
2023/03/12 12:18:09;;;;;;;;;;;;;;;9.67;nan;100137.81;5008170;28;19922;-83
2023/03/12 12:20:53;;;;;;;;;;;;;;;9.64;nan;100146.06;5019117;28;19921;-83
2023/03/12 12:23:37;;;;;;;;;;;;;;;9.75;nan;100133.44;5021539;28;20331;-83
2023/03/12 12:26:05;;;;;;;;;;;;;;;10.05;nan;100133.09;5016207;28;19926;-84
2023/03/12 12:28:50;;;;;;;;;;;;;;;10.13;nan;100130.47;5010856;28;19999;-83
2023/03/12 12:31:34;;;;;;;;;;;;;;;10.21;nan;100117.31;5023070;28;20271;-84
2023/03/12 12:34:08;;;;;;;;;;;;;;;10.43;nan;100123.03;5020507;28;19925;-84
2023/03/12 12:36:34;;;;;;;;;;;;;;;10.66;nan;100117.97;5009965;28;19951;-83
2023/03/12 12:39:08;;;;;;;;;;;;;;;10.70;nan;100122.78;5011775;28;19952;-84
2023/03/12 12:41:40;;;;;;;;;;;;;;;10.53;nan;100119.25;5011597;28;20328;-83
2023/03/12 12:44:17;;;;;;;;;;;;;;;10.31;nan;100119.84;5012755;28;19928;-84
2023/03/12 12:46:46;;;;;;;;;;;;;;;10.28;nan;100123.63;5009301;28;19922;-84
2023/03/12 12:49:13;;;;;;;;;;;;;;;10.30;nan;100120.84;5013080;28;20062;-85
2023/03/12 12:51:40;;;;;;;;;;;;;;;10.32;nan;100130.25;5012654;28;20380;-84
2023/03/12 12:54:29;;;;;;;;;;;;;;;10.29;nan;100114.72;5010563;28;20003;-85
2023/03/12 12:57:20;;;;;;;;;;;;;;;10.41;nan;100115.25;4996729;28;19921;-84
2023/03/12 12:59:58;;;;;;;;;;;;;;;10.86;nan;100121.94;4979883;28;19918;-83
2023/03/12 13:02:27;;;;;;;;;;;;;;;11.17;nan;100119.47;5007012;28;19921;-85
2023/03/12 13:04:56;;;;;;;;;;;;;;;11.45;nan;100119.16;5009202;28;19929;-85
2023/03/12 13:07:21;;;;;;;;;;;;;;;11.63;nan;100119.78;5009060;28;19925;-84